createdAt,value
2019-02-06T00:00:45.678Z,44.40
2019-02-06T00:03:19.882Z,41.27
2019-02-06T00:05:49.647Z,42.33
2019-02-06T00:08:19.299Z,40.87
2019-02-06T00:10:48.913Z,40.50
2019-02-06T00:13:18.423Z,40.63
2019-02-06T00:15:48.515Z,44.33
2019-02-06T00:18:18.041Z,38.30
2019-02-06T00:20:47.598Z,45.30
2019-02-06T00:23:17.114Z,43.53
2019-02-06T00:25:46.607Z,41.40
2019-02-06T00:28:16.117Z,37.83
2019-02-06T00:30:45.791Z,38.17
2019-02-06T00:33:15.288Z,37.20
2019-02-06T00:35:44.792Z,41.13
2019-02-06T00:38:14.328Z,34.90
2019-02-06T00:40:43.829Z,34.73
2019-02-06T00:43:13.337Z,43.00
2019-02-06T00:45:43.196Z,37.63
2019-02-06T00:48:12.710Z,39.10
2019-02-06T00:50:42.221Z,39.50
2019-02-06T00:53:11.745Z,38.83
2019-02-06T00:55:41.257Z,37.00
2019-02-06T00:58:10.740Z,34.77
2019-02-06T01:00:40.702Z,35.70
2019-02-06T01:03:10.241Z,37.43
2019-02-06T01:05:39.738Z,35.70
2019-02-06T01:08:09.223Z,36.67
2019-02-06T01:10:38.794Z,37.00
2019-02-06T01:13:08.379Z,36.03
2019-02-06T01:15:38.599Z,37.33
2019-02-06T01:18:08.202Z,38.57
2019-02-06T01:20:37.688Z,39.97
2019-02-06T01:23:07.190Z,44.40
2019-02-06T01:25:36.723Z,41.87
2019-02-06T01:28:06.226Z,40.60
2019-02-06T01:30:43.331Z,39.33
2019-02-06T01:33:12.803Z,38.93
2019-02-06T01:35:49.418Z,41.50
2019-02-06T01:38:13.514Z,38.70
2019-02-06T01:40:42.986Z,42.97
2019-02-06T01:43:12.523Z,50.20
2019-02-06T01:45:42.414Z,45.47
2019-02-06T01:48:11.955Z,36.40
2019-02-06T01:50:41.461Z,40.80
2019-02-06T01:53:10.957Z,38.93
2019-02-06T01:55:39.802Z,39.33
2019-02-06T01:58:09.367Z,42.53
2019-02-06T02:00:39.926Z,37.57
2019-02-06T02:03:09.380Z,35.00
2019-02-06T02:05:38.900Z,36.60
2019-02-06T02:08:08.382Z,36.17
2019-02-06T02:10:37.943Z,37.40
2019-02-06T02:13:07.667Z,39.07
2019-02-06T02:15:37.641Z,43.53
2019-02-06T02:18:07.482Z,39.70
2019-02-06T02:20:36.980Z,36.00
2019-02-06T02:23:06.480Z,38.97
2019-02-06T02:25:35.966Z,38.43
2019-02-06T02:28:05.604Z,40.97
2019-02-06T02:30:45.254Z,39.20
2019-02-06T02:33:14.717Z,43.67
2019-02-06T02:35:44.223Z,43.17
2019-02-06T02:38:13.758Z,43.67
2019-02-06T02:40:43.314Z,41.30
2019-02-06T02:43:12.995Z,41.87
2019-02-06T02:45:42.498Z,41.40
2019-02-06T02:48:11.994Z,37.17
2019-02-06T02:50:41.561Z,36.23
2019-02-06T02:53:11.015Z,35.60
2019-02-06T02:55:40.555Z,38.97
2019-02-06T02:58:10.732Z,42.60
2019-02-06T03:00:57.681Z,35.17
2019-02-06T03:03:37.527Z,52.37
2019-02-06T03:06:07.005Z,51.80
2019-02-06T03:08:36.497Z,51.00
2019-02-06T03:11:06.292Z,36.70
2019-02-06T03:13:35.802Z,40.17
2019-02-06T03:16:05.566Z,37.40
2019-02-06T03:18:35.054Z,39.63
2019-02-06T03:21:04.514Z,36.57
2019-02-06T03:23:34.015Z,35.47
2019-02-06T03:26:03.494Z,32.73
2019-02-06T03:28:32.976Z,32.67
2019-02-06T03:31:02.513Z,28.83
2019-02-06T03:33:32.007Z,34.83
2019-02-06T03:36:02.066Z,40.47
2019-02-06T03:38:31.747Z,38.83
2019-02-06T03:41:01.382Z,32.10
2019-02-06T03:43:30.846Z,32.47
2019-02-06T03:46:00.310Z,33.20
2019-02-06T03:48:29.800Z,32.73
2019-02-06T03:50:59.285Z,34.27
2019-02-06T03:53:28.798Z,32.80
2019-02-06T03:55:58.298Z,30.97
2019-02-06T03:58:27.863Z,31.00
2019-02-06T04:00:57.387Z,30.43
2019-02-06T04:03:26.857Z,26.57
2019-02-06T04:05:56.379Z,31.67
2019-02-06T04:08:25.867Z,30.00
2019-02-06T04:10:55.366Z,26.57
2019-02-06T04:13:24.829Z,29.33
2019-02-06T04:15:54.307Z,29.63
2019-02-06T04:18:23.821Z,27.10
2019-02-06T04:20:53.342Z,29.97
2019-02-06T04:23:22.846Z,30.57
2019-02-06T04:25:52.303Z,28.17
2019-02-06T04:28:21.166Z,24.63
2019-02-06T04:30:50.717Z,26.77
2019-02-06T04:33:20.216Z,26.10
2019-02-06T04:35:49.699Z,22.70
2019-02-06T04:38:19.263Z,21.97
2019-02-06T04:40:48.767Z,24.30
2019-02-06T04:43:18.291Z,21.60
2019-02-06T04:45:47.826Z,23.70
2019-02-06T04:48:17.348Z,22.27
2019-02-06T04:50:46.851Z,21.67
2019-02-06T04:53:16.391Z,22.37
2019-02-06T04:55:45.194Z,22.70
2019-02-06T04:58:14.743Z,24.33
2019-02-06T05:00:44.216Z,20.83
2019-02-06T05:03:13.721Z,21.07
2019-02-06T05:05:43.222Z,20.40
2019-02-06T05:08:12.952Z,22.30
2019-02-06T05:10:42.637Z,19.60
2019-02-06T05:13:12.180Z,20.43
2019-02-06T05:15:41.672Z,18.77
2019-02-06T05:18:11.194Z,19.80
2019-02-06T05:20:41.646Z,18.20
2019-02-06T05:23:11.580Z,19.10
2019-02-06T05:25:41.055Z,17.20
2019-02-06T05:28:10.683Z,20.20
2019-02-06T05:30:40.181Z,18.37
2019-02-06T05:33:09.693Z,17.97
2019-02-06T05:35:39.213Z,16.77
2019-02-06T05:38:09.243Z,17.80
2019-02-06T05:40:38.720Z,17.27
2019-02-06T05:43:09.390Z,18.73
2019-02-06T05:45:38.944Z,23.17
2019-02-06T05:48:08.578Z,19.67
2019-02-06T05:50:38.062Z,18.60
2019-02-06T05:53:07.835Z,19.57
2019-02-06T05:55:37.336Z,23.27
2019-02-06T05:58:06.832Z,21.47
2019-02-06T06:00:43.147Z,19.33
2019-02-06T06:03:12.638Z,22.47
2019-02-06T06:05:42.139Z,21.73
2019-02-06T06:08:11.857Z,18.73
2019-02-06T06:10:41.323Z,19.50
2019-02-06T06:13:10.810Z,19.73
2019-02-06T06:15:40.304Z,20.20
2019-02-06T06:18:09.158Z,18.97
2019-02-06T06:20:38.735Z,20.80
2019-02-06T06:23:08.607Z,16.53
2019-02-06T06:25:38.132Z,16.37
2019-02-06T06:28:07.623Z,18.63
2019-02-06T06:30:37.195Z,16.43
2019-02-06T06:33:06.668Z,17.57
2019-02-06T06:35:36.175Z,20.33
2019-02-06T06:38:06.014Z,15.37
2019-02-06T06:40:35.550Z,15.20
2019-02-06T06:43:05.250Z,14.87
2019-02-06T06:45:34.745Z,14.37
2019-02-06T06:48:04.354Z,13.87
2019-02-06T06:50:33.852Z,12.47
2019-02-06T06:53:03.418Z,15.10
2019-02-06T06:55:35.119Z,13.70
2019-02-06T06:58:04.051Z,14.73
2019-02-06T07:00:34.367Z,12.83
2019-02-06T07:03:03.855Z,13.47
2019-02-06T07:05:33.366Z,13.83
2019-02-06T07:08:11.144Z,12.53
2019-02-06T07:10:34.614Z,12.20
2019-02-06T07:13:04.084Z,12.27
2019-02-06T07:15:35.049Z,12.30
2019-02-06T07:18:04.739Z,12.37
2019-02-06T07:20:34.255Z,12.33
2019-02-06T07:23:04.424Z,10.87
2019-02-06T07:25:34.004Z,12.27
2019-02-06T07:28:03.518Z,29.00
2019-02-06T07:30:34.800Z,64.70
2019-02-06T07:33:04.438Z,15.70
2019-02-06T07:35:34.023Z,13.07
2019-02-06T07:38:03.521Z,14.70
2019-02-06T07:40:33.015Z,10.90
2019-02-06T07:43:02.502Z,10.13
2019-02-06T07:45:32.014Z,9.80
2019-02-06T07:48:01.486Z,10.57
2019-02-06T07:50:32.432Z,13.33
2019-02-06T07:53:01.876Z,10.23
2019-02-06T07:55:31.377Z,10.93
2019-02-06T07:58:00.901Z,10.97
2019-02-06T08:00:30.529Z,10.60
2019-02-06T08:03:00.510Z,11.50
2019-02-06T08:05:30.084Z,8.87
2019-02-06T08:07:59.781Z,9.30
2019-02-06T08:10:34.291Z,9.77
2019-02-06T08:13:04.271Z,10.47
2019-02-06T08:15:34.161Z,9.33
2019-02-06T08:18:03.812Z,8.40
2019-02-06T08:20:33.299Z,10.67
2019-02-06T08:23:02.820Z,10.17
2019-02-06T08:25:32.284Z,7.97
2019-02-06T08:28:01.742Z,8.27
2019-02-06T08:30:36.318Z,8.27
2019-02-06T08:33:05.842Z,9.30
2019-02-06T08:35:35.645Z,8.60
2019-02-06T08:38:05.788Z,10.10
2019-02-06T08:40:35.381Z,9.27
2019-02-06T08:43:04.951Z,7.07
2019-02-06T08:45:34.472Z,8.33
2019-02-06T08:48:04.087Z,7.43
2019-02-06T08:50:33.625Z,7.73
2019-02-06T08:53:03.104Z,8.93
2019-02-06T08:55:32.827Z,7.53
2019-02-06T08:58:02.460Z,8.57
2019-02-06T09:00:34.244Z,9.90
2019-02-06T09:03:04.552Z,7.53
2019-02-06T09:05:34.532Z,10.03
2019-02-06T09:08:04.248Z,8.13
2019-02-06T09:10:34.001Z,8.17
2019-02-06T09:13:03.577Z,7.63
2019-02-06T09:15:33.060Z,9.90
2019-02-06T09:18:02.566Z,7.87
2019-02-06T09:20:52.483Z,7.63
2019-02-06T09:23:20.703Z,7.97
2019-02-06T09:25:50.195Z,8.63
2019-02-06T09:28:19.689Z,8.03
2019-02-06T09:30:51.353Z,7.30
2019-02-06T09:33:20.970Z,8.10
2019-02-06T09:35:50.482Z,8.70
2019-02-06T09:38:19.996Z,6.33
2019-02-06T09:40:49.770Z,8.33
2019-02-06T09:43:19.735Z,7.07
2019-02-06T09:45:49.614Z,7.43
2019-02-06T09:48:19.186Z,7.77
2019-02-06T09:50:48.708Z,8.87
2019-02-06T09:53:18.208Z,7.27
2019-02-06T09:55:47.732Z,7.27
2019-02-06T09:58:17.227Z,7.30
2019-02-06T10:00:47.167Z,8.03
2019-02-06T10:03:16.806Z,6.63
2019-02-06T10:05:46.290Z,5.43
2019-02-06T10:08:15.769Z,6.10
2019-02-06T10:10:45.268Z,5.60
2019-02-06T10:13:16.479Z,5.77
2019-02-06T10:15:45.283Z,6.00
2019-02-06T10:18:14.757Z,7.33
2019-02-06T10:20:49.673Z,6.40
2019-02-06T10:23:20.325Z,7.73
2019-02-06T10:25:49.815Z,6.33
2019-02-06T10:28:19.326Z,5.67
2019-02-06T10:30:50.667Z,6.77
2019-02-06T10:33:20.346Z,6.10
2019-02-06T10:35:51.963Z,7.40
2019-02-06T10:38:20.962Z,6.97
2019-02-06T10:40:50.557Z,5.67
2019-02-06T10:43:31.295Z,6.03
2019-02-06T10:45:51.584Z,6.20
2019-02-06T10:48:21.055Z,5.90
2019-02-06T10:50:54.380Z,6.30
2019-02-06T10:53:23.954Z,8.37
2019-02-06T10:55:53.468Z,7.00
2019-02-06T10:58:23.066Z,6.97
2019-02-06T11:01:00.999Z,6.27
2019-02-06T11:03:30.507Z,7.70
2019-02-06T11:06:00.030Z,6.60
2019-02-06T11:08:29.578Z,6.97
2019-02-06T11:10:59.463Z,7.57
2019-02-06T11:13:28.943Z,7.70
2019-02-06T11:15:58.527Z,7.33
2019-02-06T11:18:28.069Z,7.03
2019-02-06T11:20:57.594Z,6.30
2019-02-06T11:23:27.121Z,5.97
2019-02-06T11:25:56.963Z,6.93
2019-02-06T11:28:26.526Z,7.70
2019-02-06T11:30:57.244Z,8.37
2019-02-06T11:33:26.938Z,8.77
2019-02-06T11:35:56.906Z,7.30
2019-02-06T11:38:28.076Z,6.13
2019-02-06T11:40:58.057Z,7.80
2019-02-06T11:43:27.534Z,6.23
2019-02-06T11:45:57.054Z,7.97
2019-02-06T11:48:26.553Z,7.70
2019-02-06T11:50:56.883Z,8.13
2019-02-06T11:53:27.205Z,7.33
2019-02-06T11:55:57.588Z,6.57
2019-02-06T11:58:27.592Z,6.47
2019-02-06T12:01:22.149Z,5.87
2019-02-06T12:03:52.258Z,5.93
2019-02-06T12:06:21.866Z,6.83
2019-02-06T12:08:51.350Z,6.73
2019-02-06T12:11:20.860Z,7.27
2019-02-06T12:13:49.736Z,6.60
2019-02-06T12:16:19.231Z,7.60
2019-02-06T12:18:48.830Z,7.73
2019-02-06T12:21:18.325Z,5.97
2019-02-06T12:23:47.803Z,7.27
2019-02-06T12:26:17.302Z,7.37
2019-02-06T12:28:46.868Z,6.97
2019-02-06T12:31:23.729Z,7.33
2019-02-06T12:33:53.403Z,7.53
2019-02-06T12:36:22.914Z,7.03
2019-02-06T12:38:53.786Z,7.97
2019-02-06T12:41:23.745Z,7.23
2019-02-06T12:43:53.280Z,6.80
2019-02-06T12:46:22.734Z,7.87
2019-02-06T12:48:52.558Z,6.90
2019-02-06T12:51:22.429Z,8.30
2019-02-06T12:53:51.306Z,7.40
2019-02-06T12:56:20.836Z,6.90
2019-02-06T12:58:51.990Z,7.40
2019-02-06T13:01:21.479Z,7.33
2019-02-06T13:03:50.949Z,6.83
2019-02-06T13:06:21.038Z,6.87
2019-02-06T13:08:50.532Z,7.37
2019-02-06T13:11:20.036Z,6.23
2019-02-06T13:13:49.505Z,5.83
2019-02-06T13:16:19.039Z,6.73
2019-02-06T13:18:48.532Z,7.10
2019-02-06T13:21:18.375Z,7.90
2019-02-06T13:23:49.589Z,8.33
2019-02-06T13:26:18.982Z,8.23
2019-02-06T13:28:48.511Z,7.40
2019-02-06T13:31:18.035Z,7.60
2019-02-06T13:33:47.515Z,8.47
2019-02-06T13:36:17.532Z,6.87
2019-02-06T13:38:47.015Z,6.80
2019-02-06T13:41:16.540Z,8.90
2019-02-06T13:43:46.033Z,7.70
2019-02-06T13:46:15.487Z,7.70
2019-02-06T13:48:44.997Z,8.70
2019-02-06T13:51:19.054Z,5.93
2019-02-06T13:53:46.093Z,5.90
2019-02-06T13:56:15.589Z,8.17
2019-02-06T13:58:45.047Z,8.30
2019-02-06T14:01:25.094Z,8.30
2019-02-06T14:03:45.055Z,10.17
2019-02-06T14:06:14.610Z,7.80
2019-02-06T14:08:44.099Z,12.53
2019-02-06T14:11:13.565Z,8.87
2019-02-06T14:13:43.020Z,10.13
2019-02-06T14:16:12.628Z,8.20
2019-02-06T14:18:42.138Z,8.33
2019-02-06T14:21:11.025Z,9.73
2019-02-06T14:24:05.951Z,9.10
2019-02-06T14:26:45.862Z,7.37
2019-02-06T14:29:45.926Z,8.43
2019-02-06T14:33:02.825Z,8.33
2019-02-06T14:35:49.199Z,8.50
2019-02-06T14:38:57.699Z,9.10
2019-02-06T14:42:02.287Z,10.93
2019-02-06T14:44:48.103Z,7.67
2019-02-06T14:47:51.302Z,8.47
2019-02-06T14:50:52.908Z,7.77
2019-02-06T14:54:03.086Z,11.03
2019-02-06T14:57:18.697Z,8.27
2019-02-06T15:00:29.426Z,10.00
2019-02-06T15:03:24.225Z,8.47
2019-02-06T15:06:37.639Z,7.67
2019-02-06T15:09:59.006Z,7.87
2019-02-06T15:12:55.969Z,9.17
2019-02-06T15:15:45.110Z,7.10
2019-02-06T15:18:51.273Z,7.87
2019-02-06T15:22:03.444Z,7.20
2019-02-06T15:25:07.413Z,7.90
2019-02-06T15:28:18.554Z,7.93
2019-02-06T15:31:20.651Z,9.70
2019-02-06T15:34:41.858Z,9.33
2019-02-06T15:37:52.895Z,10.90
2019-02-06T15:40:53.078Z,9.90
2019-02-06T15:43:56.978Z,9.30
2019-02-06T15:47:00.342Z,10.50
2019-02-06T15:49:56.613Z,9.93
2019-02-06T15:52:57.426Z,8.50
2019-02-06T15:55:45.317Z,11.30
2019-02-06T15:58:48.856Z,9.37
2019-02-06T16:02:11.375Z,8.33
2019-02-06T16:05:32.458Z,7.93
2019-02-06T16:08:46.344Z,9.63
2019-02-06T16:11:49.059Z,9.43
2019-02-06T16:14:54.694Z,9.57
2019-02-06T16:17:48.392Z,6.70
2019-02-06T16:20:50.246Z,6.83
2019-02-06T16:23:43.522Z,8.00
2019-02-06T16:26:56.719Z,9.23
2019-02-06T16:30:09.914Z,9.47
2019-02-06T16:33:25.367Z,7.57
2019-02-06T16:36:29.350Z,7.43
2019-02-06T16:39:24.003Z,6.63
2019-02-06T16:42:25.658Z,7.00
2019-02-06T16:45:21.747Z,9.30
2019-02-06T16:48:31.127Z,9.23
2019-02-06T16:51:19.799Z,8.20
2019-02-06T16:54:39.158Z,8.77
2019-02-06T16:57:49.679Z,8.17
2019-02-06T17:00:48.607Z,7.97
2019-02-06T17:03:33.818Z,9.00
2019-02-06T17:06:09.945Z,7.60
2019-02-06T17:09:15.342Z,10.00
2019-02-06T17:12:04.750Z,7.80
2019-02-06T17:15:09.282Z,8.60
2019-02-06T17:18:23.465Z,9.30
2019-02-06T17:21:24.833Z,8.50
2019-02-06T17:24:32.795Z,8.00
2019-02-06T17:27:33.528Z,8.37
2019-02-06T17:30:39.782Z,10.17
2019-02-06T17:33:47.111Z,7.10
2019-02-06T17:37:00.965Z,9.27
2019-02-06T17:40:13.189Z,8.37
2019-02-06T17:43:03.465Z,7.37
2019-02-06T17:46:05.678Z,8.17
2019-02-06T17:49:22.442Z,6.97
2019-02-06T17:52:21.240Z,5.80
2019-02-06T17:55:19.109Z,7.13
2019-02-06T17:57:50.174Z,6.00
2019-02-06T18:01:05.898Z,6.07
2019-02-06T18:03:57.634Z,7.00
2019-02-06T18:06:27.143Z,5.57
2019-02-06T18:08:57.214Z,6.27
2019-02-06T18:11:27.054Z,7.50
2019-02-06T18:13:56.536Z,5.37
2019-02-06T18:16:26.031Z,5.50
2019-02-06T18:18:55.539Z,5.17
2019-02-06T18:21:25.010Z,5.67
2019-02-06T18:23:54.598Z,6.37
2019-02-06T18:26:24.210Z,7.43
2019-02-06T18:28:54.125Z,7.60
2019-02-06T18:31:23.602Z,5.10
2019-02-06T18:33:53.107Z,8.50
2019-02-06T18:36:22.625Z,6.53
2019-02-06T18:38:53.755Z,5.27
2019-02-06T18:41:23.284Z,5.67
2019-02-06T18:43:52.786Z,6.73
2019-02-06T18:46:22.312Z,7.63
2019-02-06T18:48:51.916Z,5.40
2019-02-06T18:51:21.360Z,6.93
2019-02-06T18:53:50.826Z,9.07
2019-02-06T18:56:20.350Z,5.83
2019-02-06T18:58:49.931Z,8.13
2019-02-06T19:01:19.394Z,8.10
2019-02-06T19:03:49.519Z,6.37
2019-02-06T19:06:19.180Z,5.80
2019-02-06T19:08:48.993Z,6.20
2019-02-06T19:11:18.481Z,6.50
2019-02-06T19:13:48.098Z,6.20
2019-02-06T19:16:17.719Z,7.63
2019-02-06T19:18:47.213Z,6.37
2019-02-06T19:21:18.011Z,6.20
2019-02-06T19:23:47.528Z,6.07
2019-02-06T19:26:17.012Z,6.10
2019-02-06T19:28:46.525Z,12.67
2019-02-06T19:31:16.043Z,11.83
2019-02-06T19:33:46.449Z,6.03
2019-02-06T19:36:16.002Z,5.90
2019-02-06T19:38:46.193Z,6.60
2019-02-06T19:41:16.078Z,6.93
2019-02-06T19:43:45.585Z,6.97
2019-02-06T19:46:15.096Z,6.70
2019-02-06T19:48:44.564Z,7.73
2019-02-06T19:51:14.076Z,8.53
2019-02-06T19:53:43.657Z,8.30
2019-02-06T19:56:13.196Z,6.80
2019-02-06T19:58:42.678Z,7.77
2019-02-06T20:01:12.203Z,6.87
2019-02-06T20:03:41.705Z,6.23
2019-02-06T20:06:28.513Z,8.73
2019-02-06T20:09:00.534Z,7.10
2019-02-06T20:11:30.003Z,5.63
2019-02-06T20:13:59.505Z,7.55
2019-02-06T20:16:28.983Z,6.43
2019-02-06T20:18:58.472Z,7.07
2019-02-06T20:21:27.987Z,8.03
2019-02-06T20:23:57.553Z,8.00
2019-02-06T20:26:27.070Z,6.10
2019-02-06T20:28:56.577Z,6.60
2019-02-06T20:31:26.113Z,7.97
2019-02-06T20:33:55.558Z,5.93
2019-02-06T20:36:25.038Z,6.23
2019-02-06T20:38:54.593Z,5.70
2019-02-06T20:41:24.455Z,6.20
2019-02-06T20:43:53.948Z,6.67
2019-02-06T20:46:23.428Z,7.27
2019-02-06T20:48:52.939Z,6.37
2019-02-06T20:51:22.411Z,7.07
2019-02-06T20:53:51.899Z,5.90
2019-02-06T20:56:21.436Z,6.83
2019-02-06T20:58:51.219Z,7.43
2019-02-06T21:01:20.737Z,6.73
2019-02-06T21:03:50.206Z,8.20
2019-02-06T21:06:19.751Z,9.30
2019-02-06T21:08:49.239Z,8.37
2019-02-06T21:11:18.751Z,9.07
2019-02-06T21:13:48.730Z,8.80
2019-02-06T21:16:18.223Z,8.77
2019-02-06T21:18:47.735Z,7.97
2019-02-06T21:21:17.236Z,7.80
2019-02-06T21:23:46.693Z,8.87
2019-02-06T21:26:16.172Z,9.27
2019-02-06T21:28:46.090Z,9.40
2019-02-06T21:31:15.563Z,7.37
2019-02-06T21:33:45.008Z,8.97
2019-02-06T21:36:14.511Z,9.20
2019-02-06T21:38:44.288Z,11.13
2019-02-06T21:41:13.734Z,8.20
2019-02-06T21:43:44.455Z,8.60
2019-02-06T21:46:14.234Z,7.47
2019-02-06T21:48:43.771Z,7.97
2019-02-06T21:51:13.246Z,7.97
2019-02-06T21:53:42.730Z,10.17
2019-02-06T21:56:12.180Z,10.03
2019-02-06T21:58:41.905Z,9.07
2019-02-06T22:01:11.380Z,9.03
2019-02-06T22:03:40.882Z,8.23
2019-02-06T22:06:10.382Z,7.93
2019-02-06T22:08:39.861Z,9.87
2019-02-06T22:11:09.305Z,9.87
2019-02-06T22:13:38.817Z,9.07
2019-02-06T22:16:08.335Z,8.00
2019-02-06T22:18:37.830Z,7.97
2019-02-06T22:21:07.313Z,7.93
2019-02-06T22:23:36.802Z,7.27
2019-02-06T22:26:06.289Z,8.00
2019-02-06T22:28:35.807Z,7.97
2019-02-06T22:31:05.346Z,9.63
2019-02-06T22:33:34.811Z,10.37
2019-02-06T22:36:03.778Z,7.90
2019-02-06T22:38:33.286Z,8.17
2019-02-06T22:41:02.805Z,9.17
2019-02-06T22:43:32.290Z,8.70
2019-02-06T22:46:01.805Z,9.30
2019-02-06T22:48:31.297Z,9.83
2019-02-06T22:51:00.841Z,8.20
2019-02-06T22:53:30.347Z,8.47
2019-02-06T22:55:59.832Z,8.47
2019-02-06T22:58:31.352Z,9.20
2019-02-06T23:01:17.355Z,9.73
2019-02-06T23:03:48.105Z,10.57
2019-02-06T23:06:17.623Z,10.40
2019-02-06T23:08:47.266Z,9.47
2019-02-06T23:11:16.734Z,9.17
2019-02-06T23:13:46.206Z,14.73
2019-02-06T23:16:15.694Z,16.97
2019-02-06T23:18:45.154Z,13.23
2019-02-06T23:21:14.681Z,10.63
2019-02-06T23:23:44.201Z,12.50
2019-02-06T23:26:13.671Z,11.20
2019-02-06T23:28:43.150Z,10.37
2019-02-06T23:31:12.642Z,12.00
2019-02-06T23:33:42.152Z,13.43
2019-02-06T23:36:12.173Z,12.20
2019-02-06T23:38:41.644Z,13.73
2019-02-06T23:41:11.218Z,13.33
2019-02-06T23:43:40.715Z,12.93
2019-02-06T23:46:10.215Z,15.00
2019-02-06T23:48:39.698Z,15.90
2019-02-06T23:51:09.537Z,14.60
2019-02-06T23:53:39.066Z,14.47
2019-02-06T23:56:08.626Z,14.63
2019-02-06T23:58:38.091Z,15.57
